26 września 2022

Czas Kod Pogoda Temp. Widoczność Sufit Wiatr METAR/SPECI
13:30
V
19 °C 10 km+ - 300° 300° 10 kt METAR LFBO 261130Z AUTO 30010KT 9999 FEW033 19/10 Q1015 NOSIG
13:00
V
18 °C 10 km+ - 310° 310° 11 kt METAR LFBO 261100Z AUTO 31011KT 260V330 9999 FEW022 18/10 Q1015 NOSIG
12:30
V
17 °C 10 km+ - 300° 300° 11 kt METAR LFBO 261030Z AUTO 30011KT 9999 FEW022 17/10 Q1015 NOSIG
12:00
V
17 °C 10 km+ 23.000 ft 320° 320° 14 kt METAR LFBO 261000Z AUTO 32014KT 9999 SCT023 SCT210 BKN230 17/10 Q1015 NOSIG
11:30
V
17 °C 10 km+ - 290° 290° 9 kt METAR LFBO 260930Z AUTO 29009KT 240V320 9999 FEW023 17/10 Q1015 NOSIG
11:00
V
16 °C 10 km+ - 280° 280° 6 kt METAR LFBO 260900Z AUTO 28006KT 250V320 CAVOK 16/11 Q1015 NOSIG
10:30
V
14 °C 10 km+ - 300° 300° 6 kt METAR LFBO 260830Z AUTO 30006KT 250V330 9999 FEW001 14/11 Q1015 NOSIG
10:00
V
14 °C 10 km+ - 320° 320° 8 kt METAR LFBO 260800Z AUTO 32008KT 9999 FEW011 14/11 Q1015 NOSIG
09:30
V
13 °C 10 km+ - 290° 290° 6 kt METAR LFBO 260730Z AUTO 29006KT 260V340 CAVOK 13/10 Q1015 NOSIG
09:00
V
12 °C 10 km+ - 260° 260° 5 kt METAR LFBO 260700Z AUTO 26005KT 190V290 CAVOK 12/10 Q1015 NOSIG
08:30
V
10 °C 10 km+ - Var Var 2 kt METAR LFBO 260630Z AUTO VRB02KT CAVOK 10/09 Q1015 NOSIG
08:00
V
9 °C 10 km+ - Var Var 2 kt METAR LFBO 260600Z AUTO VRB02KT CAVOK 09/08 Q1015 NOSIG
07:30
V
9 °C 10 km+ - 170° 170° 4 kt METAR LFBO 260530Z AUTO 17004KT CAVOK 09/08 Q1015 NOSIG
07:00
V
9 °C 10 km+ - Var Var 2 kt METAR LFBO 260500Z AUTO VRB02KT CAVOK 09/08 Q1015 TEMPO 4000 BR
06:30
V
10 °C 10 km+ - Var Var 2 kt METAR LFBO 260430Z AUTO VRB02KT CAVOK 10/08 Q1015 TEMPO 4000 BR
06:00
V
11 °C 10 km+ - 270° 270° 4 kt METAR LFBO 260400Z AUTO 27004KT 230V300 CAVOK 11/09 Q1015 TEMPO 4000 BR
05:30
V
9 °C 10 km+ - 230° 230° 3 kt METAR LFBO 260330Z AUTO 23003KT 200V280 CAVOK 09/08 Q1015 TEMPO 4000 BR
05:00
V
9 °C 10 km+ - 190° 190° 4 kt METAR LFBO 260300Z AUTO 19004KT CAVOK 09/08 Q1015 TEMPO 4000 BR
04:30
V
9 °C 10 km+ - 190° 190° 4 kt METAR LFBO 260230Z AUTO 19004KT CAVOK 09/08 Q1015 TEMPO 4000 BR
04:00
V
9 °C 10 km+ - 150° 150° 3 kt METAR LFBO 260200Z AUTO 15003KT CAVOK 09/08 Q1015 TEMPO 4000 BR
03:30
V
10 °C 10 km+ - 170° 170° 3 kt METAR LFBO 260130Z AUTO 17003KT CAVOK 10/08 Q1015 TEMPO 4000 BR
03:00
V
10 °C 10 km+ - 190° 190° 3 kt METAR LFBO 260100Z AUTO 19003KT CAVOK 10/08 Q1016 NOSIG
02:30
V
10 °C 10 km+ - 160° 160° 4 kt METAR LFBO 260030Z AUTO 16004KT CAVOK 10/08 Q1016 NOSIG
02:00
V
10 °C 10 km+ - 180° 180° 4 kt METAR LFBO 260000Z AUTO 18004KT CAVOK 10/08 Q1016 NOSIG
01:30
V
11 °C 10 km+ - 180° 180° 3 kt METAR LFBO 252330Z AUTO 18003KT CAVOK 11/09 Q1016 NOSIG
01:00
V
11 °C 10 km+ - 210° 210° 2 kt METAR LFBO 252300Z AUTO 21002KT CAVOK 11/09 Q1016 NOSIG
00:30
V
12 °C 10 km+ - Var Var 2 kt METAR LFBO 252230Z AUTO VRB02KT CAVOK 12/09 Q1016 NOSIG
00:00
V
13 °C 10 km+ - 290° 290° 3 kt METAR LFBO 252200Z AUTO 29003KT CAVOK 13/09 Q1017 NOSIG

25 września 2022

Czas Kod Pogoda Temp. Widoczność Sufit Wiatr METAR/SPECI
23:30
V
13 °C 10 km+ - 320° 320° 3 kt METAR LFBO 252130Z AUTO 32003KT CAVOK 13/09 Q1017 NOSIG
23:00
V
14 °C 10 km+ - 310° 310° 3 kt METAR LFBO 252100Z AUTO 31003KT CAVOK 14/10 Q1017 NOSIG
22:30
V
14 °C 10 km+ - 310° 310° 4 kt METAR LFBO 252030Z AUTO 31004KT CAVOK 14/09 Q1017 NOSIG
22:00
V
15 °C 10 km+ - 300° 300° 3 kt METAR LFBO 252000Z AUTO 30003KT CAVOK 15/09 Q1017 NOSIG
21:30
V
15 °C 10 km+ - 310° 310° 4 kt METAR LFBO 251930Z AUTO 31004KT CAVOK 15/09 Q1016 NOSIG
21:00
V
16 °C 10 km+ - 350° 350° 4 kt METAR LFBO 251900Z AUTO 35004KT CAVOK 16/10 Q1016 NOSIG
20:30
V
17 °C 10 km+ - 360° 360° 5 kt METAR LFBO 251830Z AUTO 36005KT 340V040 CAVOK 17/10 Q1016 NOSIG
20:00
V
17 °C 10 km+ - 360° 360° 4 kt METAR LFBO 251800Z AUTO 36004KT CAVOK 17/09 Q1015 NOSIG
19:30
V
18 °C 10 km+ - 340° 340° 7 kt METAR LFBO 251730Z AUTO 34007KT CAVOK 18/08 Q1015 NOSIG
19:00
V
19 °C 10 km+ - 350° 350° 8 kt METAR LFBO 251700Z AUTO 35008KT CAVOK 19/08 Q1015 NOSIG
18:30
V
19 °C 10 km+ - 330° 330° 8 kt METAR LFBO 251630Z AUTO 33008KT CAVOK 19/08 Q1015 NOSIG
18:00
V
20 °C 10 km+ - 350° 350° 8 kt METAR LFBO 251600Z AUTO 35008KT CAVOK 20/09 Q1015 NOSIG
17:30
V
20 °C 10 km+ - 310° 310° 7 kt METAR LFBO 251530Z AUTO 31007KT 280V360 9999 FEW041 SCT070 20/09 Q1015 NOSIG
17:00
V
20 °C 10 km+ - 340° 340° 6 kt METAR LFBO 251500Z AUTO 34006KT 260V020 9999 FEW011 20/09 Q1015 NOSIG
16:30
V
20 °C 10 km+ 7.400 ft 340° 340° 8 kt METAR LFBO 251430Z AUTO 34008KT 300V030 9999 SCT038 BKN074 20/09 Q1015 NOSIG
16:00
V
19 °C 10 km+ 7.400 ft 340° 340° 7 kt METAR LFBO 251400Z AUTO 34007KT 290V010 9999 FEW037 BKN074 BKN200 19/09 Q1015 NOSIG
15:30
V
19 °C 10 km+ 6.000 ft 330° 330° 8 kt METAR LFBO 251330Z AUTO 33008KT 260V010 9999 SCT039 BKN060 BKN072 19/09 Q1015 NOSIG
15:00
V
19 °C 10 km+ - 330° 330° 8 kt METAR LFBO 251300Z AUTO 33008KT 300V010 9999 FEW028 SCT070 19/10 Q1016 NOSIG
14:30
V
19 °C 10 km+ - 320° 320° 7 kt METAR LFBO 251230Z AUTO 32007KT 280V030 9999 FEW032 SCT070 19/11 Q1016 NOSIG
14:00
V
17 °C 10 km+ 6.600 ft 330° 330° 7 kt METAR LFBO 251200Z AUTO 33007KT 9999 FEW026 BKN066 17/10 Q1016 NOSIG
13:30
V
17 °C 10 km+ 4.400 ft 340° 340° 8 kt METAR LFBO 251130Z AUTO 34008KT 310V020 9999 FEW026 SCT035 BKN044 17/10 Q1016 NOSIG
13:00
M
17 °C 10 km+ 2.300 ft 330° 330° 8 kt METAR LFBO 251100Z AUTO 33008KT 300V010 9999 BKN023 BKN034 BKN058 17/11 Q1016 NOSIG
12:30
M
18 °C 10 km+ 2.000 ft 300° 300° 9 kt METAR LFBO 251030Z AUTO 30009KT 260V330 9999 BKN020 BKN046 BKN064 18/11 Q1016 NOSIG
12:00
M
17 °C 10 km+ 1.700 ft 290° 290° 8 kt METAR LFBO 251000Z AUTO 29008KT 260V320 9999 BKN017 BKN022 17/11 Q1016 NOSIG
11:30
M
15 °C 10 km+ 1.400 ft 290° 290° 9 kt METAR LFBO 250930Z AUTO 29009KT 260V320 9999 BKN014 BKN050 15/11 Q1016 BECMG SCT030
11:00
M
15 °C 10 km+ 1.300 ft 290° 290° 9 kt METAR LFBO 250900Z AUTO 29009KT 9999 OVC013 15/11 Q1016 BECMG SCT030
10:30
I
14 °C 10 km+ 900 ft 300° 300° 6 kt METAR LFBO 250830Z AUTO 30006KT 250V330 9999 BKN009 BKN013 14/11 Q1016 BECMG SCT030
10:00
I
13 °C 10 km+ 900 ft 290° 290° 5 kt METAR LFBO 250800Z AUTO 29005KT 230V330 9999 BKN009 13/11 Q1016 BECMG SCT030
09:30
I
12 °C 10 km+ 800 ft 270° 270° 4 kt METAR LFBO 250730Z AUTO 27004KT 240V320 9999 OVC008 12/11 Q1016 BECMG SCT030
09:00
I
12 °C 10 km+ 700 ft 280° 280° 3 kt METAR LFBO 250700Z AUTO 28003KT 230V310 9999 OVC007 12/11 Q1016 BECMG FEW009 SCT025
08:30
I
12 °C 10 km+ 700 ft 290° 290° 4 kt METAR LFBO 250630Z AUTO 29004KT 9999 BKN007 OVC025 12/11 Q1016 BECMG FEW009 SCT025
08:00
I
12 °C 10 km+ 600 ft 330° 330° 6 kt METAR LFBO 250600Z AUTO 33006KT 9999 BKN006 12/11 Q1016 NOSIG
07:30
V
11 °C 10 km+ - 260° 260° 3 kt METAR LFBO 250530Z AUTO 26003KT 220V290 9999 FEW008 11/10 Q1015 TEMPO BKN012
07:00
V
11 °C 10 km+ - 300° 300° 4 kt METAR LFBO 250500Z AUTO 30004KT 270V350 9999 FEW009 11/10 Q1015 TEMPO BKN008
06:30
V
11 °C 10 km+ - Var Var 2 kt METAR LFBO 250430Z AUTO VRB02KT 9999 SCT009 11/10 Q1015 TEMPO BKN008
06:00
V
11 °C 10 km+ - Var Var 2 kt METAR LFBO 250400Z AUTO VRB02KT 9999 FEW010 11/10 Q1015 TEMPO BKN008
05:30
V
11 °C 10 km+ - 190° 190° 4 kt METAR LFBO 250330Z AUTO 19004KT 9999 FEW010 11/10 Q1015 TEMPO BKN008
05:00
V
11 °C 10 km+ - 220° 220° 5 kt METAR LFBO 250300Z AUTO 22005KT CAVOK 11/10 Q1015 TEMPO BKN008
04:30
V
12 °C 10 km+ - 180° 180° 5 kt METAR LFBO 250230Z AUTO 18005KT 9999 FEW021 12/11 Q1015 TEMPO BKN008
04:00
V
12 °C 10 km+ - 210° 210° 5 kt METAR LFBO 250200Z AUTO 21005KT CAVOK 12/11 Q1015 TEMPO BKN008
03:30
V
13 °C 10 km+ - 230° 230° 6 kt METAR LFBO 250130Z AUTO 23006KT CAVOK 13/11 Q1015 TEMPO BKN008
03:00
V
13 °C 10 km+ - 240° 240° 6 kt METAR LFBO 250100Z AUTO 24006KT CAVOK 13/11 Q1015 TEMPO BKN012
02:30
V
13 °C 10 km+ - 230° 230° 7 kt METAR LFBO 250030Z AUTO 23007KT CAVOK 13/11 Q1016 TEMPO BKN012
02:00
V
14 °C 10 km+ - 260° 260° 9 kt METAR LFBO 250000Z AUTO 26009KT CAVOK 14/12 Q1015 TEMPO BKN012
01:30
V
14 °C 10 km+ - 270° 270° 10 kt METAR LFBO 242330Z AUTO 27010KT CAVOK 14/12 Q1015 NOSIG
01:00
V
14 °C 10 km+ - 270° 270° 10 kt METAR LFBO 242300Z AUTO 27010KT CAVOK 14/11 Q1015 NOSIG
00:30
V
15 °C 10 km+ - 260° 260° 12 kt METAR LFBO 242230Z AUTO 26012KT CAVOK 15/12 Q1016 NOSIG
00:00
V
15 °C 10 km+ - 260° 260° 10 kt METAR LFBO 242200Z AUTO 26010KT CAVOK 15/12 Q1015 NOSIG

24 września 2022

Czas Kod Pogoda Temp. Widoczność Sufit Wiatr METAR/SPECI
23:30
V
14 °C 10 km+ - 250° 250° 6 kt METAR LFBO 242130Z AUTO 25006KT CAVOK 14/11 Q1016 NOSIG
23:00
V
15 °C 10 km+ - 240° 240° 8 kt METAR LFBO 242100Z AUTO 24008KT CAVOK 15/12 Q1016 BECMG 30010KT
22:30
V
15 °C 10 km+ - 230° 230° 9 kt METAR LFBO 242030Z AUTO 23009KT 9999 FEW029/// SCT078/// //////TCU 15/12 Q1016 BECMG 30010KT SCT020 BKN080
22:00
V
15 °C 10 km+ 11.000 ft 230° 230° 9 kt METAR LFBO 242000Z AUTO 23009KT 220V280 9999 FEW033 BKN110 15/12 Q1016 TEMPO 4000 -SHRA BKN030TCU
21:30
V
16 °C 10 km+ - 240° 240° 9 kt METAR LFBO 241930Z AUTO 24009KT CAVOK 16/12 Q1016 TEMPO 4000 -SHRA BKN030TCU BECMG 30010KT
21:00
V
17 °C 10 km+ - 220° 220° 7 kt METAR LFBO 241900Z AUTO 22007KT 9999 //////TCU 17/12 Q1015 TEMPO 4000 -SHRA BECMG 30010KT
20:30
V
17 °C 10 km+ - 260° 260° 10 kt METAR LFBO 241830Z AUTO 26010KT 9999 ///TCU 17/12 Q1015 TEMPO 4000 -SHRA
20:00
V
17 °C 10 km+ - 250° 250° 9 kt METAR LFBO 241800Z AUTO 25009KT 9999 //////TCU 17/12 Q1015 TEMPO 4000 -SHRA
19:30
V
17 °C 10 km+ 10.000 ft 240° 240° 8 kt METAR LFBO 241730Z AUTO 24008KT 9999 FEW027 BKN100 OVC130 17/12 Q1015 TEMPO 4000 -SHRA BKN030TCU BECMG 30010KT
19:00
V
17 °C 10 km+ - 250° 250° 9 kt METAR LFBO 241700Z AUTO 25009KT 210V270 CAVOK 17/12 Q1014 TEMPO 4000 -SHRA BKN030TCU
18:30
V
17 °C 10 km+ - 250° 250° 8 kt METAR LFBO 241630Z AUTO 25008KT 210V270 9999 //////TCU 17/11 Q1014 TEMPO 4000 -SHRA
18:00
V
17 °C 10 km+ 7.400 ft 260° 260° 6 kt METAR LFBO 241600Z AUTO 26006KT 220V300 9999 FEW023/// OVC074/// //////TCU 17/11 Q1014 TEMPO 4000 -SHRA
17:30
V
17 °C 10 km+ 7.800 ft 300° 300° 9 kt METAR LFBO 241530Z AUTO 30009KT 9999 FEW022/// OVC078/// //////CB 17/12 Q1014 TEMPO 4000 -SHRA
17:00
V
18 °C 10 km+ - 310° 310° 11 kt METAR LFBO 241500Z AUTO 31011KT 9999 //////TCU 18/11 Q1014 TEMPO 4000 -SHRA
16:30
V
19 °C 10 km+ 8.800 ft 320° 320° 16 kt METAR LFBO 241430Z AUTO 32016KT 9999 FEW026 BKN088 19/12 Q1014 TEMPO 4000 -SHRA BKN030TCU
16:00
V
20 °C 10 km+ 9.200 ft 330° 330° 14 kt METAR LFBO 241400Z AUTO 33014KT 9999 FEW030 BKN092 20/11 Q1014 TEMPO 4000 -SHRA BKN030TCU
15:30
V
20 °C 10 km+ 10.000 ft 290° 290° 10 kt METAR LFBO 241330Z AUTO 29010KT 9999 FEW025 BKN100 BKN130 20/12 Q1014 TEMPO 4000 -SHRA BKN030TCU
15:00
V
20 °C 10 km+ 6.600 ft 300° 300° 12 kt METAR LFBO 241300Z AUTO 30012KT 9999 SCT024 SCT054 BKN066 20/13 Q1014 TEMPO 4000 -SHRA BKN030TCU
14:30
V
20 °C 10 km+ 6.200 ft 290° 290° 12 kt METAR LFBO 241230Z AUTO 29012KT 9999 FEW027 SCT052 BKN062 20/13 Q1015 TEMPO 4000 -SHRA BKN030TCU
14:00
V
20 °C 10 km+ 9.400 ft 290° 290° 12 kt METAR LFBO 241200Z AUTO 29012KT 9999 FEW028 BKN094 BKN110 20/12 Q1015 TEMPO 4000 -SHRA BKN030TCU
Starsze dane

My i osoby trzecie śledzimy twoje zachowanie w internecie na naszej stronie za pomocą plików cookie. Jeśli kontynuujesz, zakładamy, że zgadzasz się z naszą polityką plików cookie. Dowiedz się więcej